UAL485 KJAC-KDEN
Flight info
| Callsign | UAL485 |
|---|---|
| Flight time | 1h 3m |
| Altitude | 37000 |
| Route | KICNE TOFUU FLATI5 |
| Aircraft | A319/M-SDE3FGHIRWY/LB1 |
Departure
| Time | 2026-05-06 03:21 |
|---|---|
| Airport | Jackson Hole Airport (KJAC) |
Arrival
| Time | 2026-05-06 04:24 |
|---|---|
| Airport | Denver International Airport (KDEN) |
| Time | Latitude | Longitude | Altitude | Speed | Heading |
|---|---|---|---|---|---|
| 2026-05-06 02:59 | 43.60386 | -110.73693 | 6434 ft | 0 kts | 109° |
| 2026-05-06 03:11 | 43.60387 | -110.73698 | 6433 ft | 2 kts | 109° |
| 2026-05-06 03:12 | 43.60392 | -110.73717 | 6433 ft | 2 kts | 113° |
| 2026-05-06 03:12 | 43.60401 | -110.73734 | 6433 ft | 2 kts | 135° |
| 2026-05-06 03:12 | 43.60412 | -110.73748 | 6433 ft | 2 kts | 152° |
| 2026-05-06 03:12 | 43.60426 | -110.73755 | 6433 ft | 2 kts | 168° |
| 2026-05-06 03:13 | 43.60442 | -110.73756 | 6433 ft | 2 kts | 186° |
| 2026-05-06 03:13 | 43.60451 | -110.73754 | 6433 ft | 0 kts | 197° |
| 2026-05-06 03:13 | 43.60458 | -110.73751 | 6433 ft | 0 kts | 200° |
| 2026-05-06 03:19 | 43.60402 | -110.73779 | 6431 ft | 19 kts | 197° |
| 2026-05-06 03:19 | 43.60278 | -110.73836 | 6428 ft | 18 kts | 199° |
| 2026-05-06 03:19 | 43.60159 | -110.73893 | 6425 ft | 17 kts | 200° |
| 2026-05-06 03:19 | 43.60048 | -110.73953 | 6423 ft | 16 kts | 200° |
| 2026-05-06 03:20 | 43.59908 | -110.74098 | 6419 ft | 10 kts | 287° |
| 2026-05-06 03:20 | 43.59955 | -110.74150 | 6419 ft | 11 kts | 8° |
| 2026-05-06 03:20 | 43.60202 | -110.74036 | 6425 ft | 77 kts | 21° |
| 2026-05-06 03:21 | 43.60936 | -110.73676 | 6468 ft | 142 kts | 21° |
| 2026-05-06 03:21 | 43.61889 | -110.73190 | 7172 ft | 148 kts | 22° |
| 2026-05-06 03:21 | 43.62819 | -110.72678 | 8044 ft | 149 kts | 21° |
| 2026-05-06 03:21 | 43.63734 | -110.72211 | 8910 ft | 136 kts | 23° |
| 2026-05-06 03:22 | 43.64521 | -110.71522 | 9371 ft | 142 kts | 43° |
| 2026-05-06 03:22 | 43.65086 | -110.70349 | 9782 ft | 156 kts | 64° |
| 2026-05-06 03:22 | 43.65242 | -110.68771 | 10167 ft | 178 kts | 89° |
| 2026-05-06 03:22 | 43.64803 | -110.67065 | 10489 ft | 207 kts | 116° |
| 2026-05-06 03:23 | 43.63739 | -110.65568 | 10886 ft | 230 kts | 141° |
| 2026-05-06 03:23 | 43.62315 | -110.64454 | 11311 ft | 246 kts | 154° |
| 2026-05-06 03:23 | 43.60526 | -110.64185 | 11578 ft | 271 kts | 195° |
| 2026-05-06 03:23 | 43.58877 | -110.65389 | 11963 ft | 280 kts | 228° |
| 2026-05-06 03:24 | 43.57480 | -110.67363 | 12396 ft | 295 kts | 230° |
| 2026-05-06 03:24 | 43.55786 | -110.69144 | 12800 ft | 321 kts | 207° |
| 2026-05-06 03:24 | 43.53545 | -110.69718 | 13211 ft | 345 kts | 177° |
| 2026-05-06 03:24 | 43.51242 | -110.68768 | 13771 ft | 355 kts | 147° |
| 2026-05-06 03:25 | 43.49469 | -110.66471 | 14495 ft | 352 kts | 118° |
| 2026-05-06 03:25 | 43.48301 | -110.63509 | 15258 ft | 353 kts | 111° |
| 2026-05-06 03:25 | 43.47190 | -110.60530 | 15937 ft | 359 kts | 114° |
| 2026-05-06 03:25 | 43.45943 | -110.57531 | 16574 ft | 367 kts | 117° |
| 2026-05-06 03:26 | 43.44564 | -110.54548 | 17244 ft | 373 kts | 120° |
| 2026-05-06 03:26 | 43.43079 | -110.51560 | 17970 ft | 378 kts | 122° |
| 2026-05-06 03:26 | 43.41565 | -110.48646 | 18621 ft | 383 kts | 122° |
| 2026-05-06 03:26 | 43.39991 | -110.45682 | 19220 ft | 389 kts | 122° |
| 2026-05-06 03:27 | 43.38375 | -110.42677 | 19793 ft | 395 kts | 122° |
| 2026-05-06 03:27 | 43.36728 | -110.39635 | 20391 ft | 400 kts | 122° |
| 2026-05-06 03:27 | 43.35049 | -110.36556 | 21028 ft | 403 kts | 122° |
| 2026-05-06 03:27 | 43.33386 | -110.33501 | 21576 ft | 408 kts | 122° |
| 2026-05-06 03:28 | 43.31670 | -110.30349 | 22093 ft | 414 kts | 122° |
| 2026-05-06 03:28 | 43.29953 | -110.27196 | 22648 ft | 418 kts | 122° |
| 2026-05-06 03:28 | 43.28189 | -110.23971 | 23160 ft | 423 kts | 122° |
| 2026-05-06 03:28 | 43.26430 | -110.20753 | 23660 ft | 428 kts | 122° |
| 2026-05-06 03:29 | 43.24643 | -110.17491 | 24200 ft | 431 kts | 121° |
| 2026-05-06 03:29 | 43.22831 | -110.14180 | 24739 ft | 435 kts | 121° |
| 2026-05-06 03:29 | 43.21012 | -110.10862 | 25262 ft | 438 kts | 122° |
| 2026-05-06 03:29 | 43.19167 | -110.07507 | 25718 ft | 442 kts | 121° |
| 2026-05-06 03:30 | 43.17316 | -110.04142 | 26151 ft | 447 kts | 121° |
| 2026-05-06 03:30 | 43.15454 | -110.00764 | 26620 ft | 450 kts | 121° |
| 2026-05-06 03:30 | 43.14199 | -109.98485 | 26933 ft | 452 kts | 121° |
| 2026-05-06 03:30 | 43.11682 | -109.93926 | 27542 ft | 455 kts | 121° |
| 2026-05-06 03:31 | 43.09761 | -109.90446 | 27936 ft | 460 kts | 121° |
| 2026-05-06 03:31 | 43.07819 | -109.86925 | 28332 ft | 464 kts | 122° |
| 2026-05-06 03:31 | 43.05876 | -109.83413 | 28724 ft | 467 kts | 121° |
| 2026-05-06 03:31 | 43.03910 | -109.79878 | 29154 ft | 470 kts | 121° |
| 2026-05-06 03:32 | 43.01939 | -109.76332 | 29691 ft | 468 kts | 121° |
| 2026-05-06 03:32 | 42.99982 | -109.72819 | 30178 ft | 469 kts | 121° |
| 2026-05-06 03:32 | 42.98004 | -109.69257 | 30550 ft | 472 kts | 121° |
| 2026-05-06 03:32 | 42.96041 | -109.65723 | 30893 ft | 475 kts | 121° |
| 2026-05-06 03:33 | 42.94022 | -109.62106 | 31288 ft | 476 kts | 122° |
| 2026-05-06 03:33 | 42.92029 | -109.58539 | 31662 ft | 478 kts | 122° |
| 2026-05-06 03:33 | 42.90014 | -109.54936 | 32025 ft | 480 kts | 122° |
| 2026-05-06 03:33 | 42.87999 | -109.51334 | 32373 ft | 482 kts | 122° |
| 2026-05-06 03:34 | 42.85955 | -109.47687 | 32707 ft | 483 kts | 122° |
| 2026-05-06 03:34 | 42.83944 | -109.44106 | 33142 ft | 482 kts | 123° |
| 2026-05-06 03:34 | 42.81917 | -109.40497 | 33551 ft | 480 kts | 122° |
| 2026-05-06 03:34 | 42.79891 | -109.36903 | 33957 ft | 479 kts | 123° |
| 2026-05-06 03:35 | 42.77858 | -109.33287 | 34269 ft | 478 kts | 123° |
| 2026-05-06 03:35 | 42.75863 | -109.29743 | 34595 ft | 477 kts | 124° |
| 2026-05-06 03:35 | 42.73862 | -109.26201 | 34904 ft | 475 kts | 124° |
| 2026-05-06 03:35 | 42.71851 | -109.22652 | 35196 ft | 474 kts | 124° |
| 2026-05-06 03:36 | 42.69852 | -109.19119 | 35523 ft | 473 kts | 124° |
| 2026-05-06 03:36 | 42.67855 | -109.15591 | 35815 ft | 474 kts | 125° |
| 2026-05-06 03:36 | 42.65847 | -109.12048 | 36058 ft | 475 kts | 125° |
| 2026-05-06 03:36 | 42.63807 | -109.08460 | 36340 ft | 476 kts | 125° |
| 2026-05-06 03:37 | 42.61805 | -109.04942 | 36644 ft | 476 kts | 125° |
| 2026-05-06 03:37 | 42.59789 | -109.01399 | 36919 ft | 477 kts | 126° |
| 2026-05-06 03:37 | 42.55731 | -108.94286 | 36980 ft | 478 kts | 126° |
| 2026-05-06 03:38 | 42.51684 | -108.87208 | 37082 ft | 477 kts | 126° |
| 2026-05-06 03:38 | 42.49651 | -108.83656 | 36906 ft | 477 kts | 126° |
| 2026-05-06 03:38 | 42.47617 | -108.80114 | 37034 ft | 477 kts | 126° |
| 2026-05-06 03:39 | 42.43563 | -108.73056 | 37006 ft | 477 kts | 126° |
| 2026-05-06 03:39 | 42.39505 | -108.66005 | 37011 ft | 476 kts | 126° |
| 2026-05-06 03:40 | 42.35437 | -108.58958 | 37015 ft | 476 kts | 126° |
| 2026-05-06 03:40 | 42.31381 | -108.51945 | 37004 ft | 476 kts | 127° |
| 2026-05-06 03:41 | 42.27313 | -108.44929 | 37014 ft | 475 kts | 127° |
| 2026-05-06 03:41 | 42.23248 | -108.37931 | 37018 ft | 475 kts | 127° |
| 2026-05-06 03:42 | 42.19186 | -108.30957 | 37021 ft | 475 kts | 128° |
| 2026-05-06 03:42 | 42.15104 | -108.23965 | 37000 ft | 475 kts | 128° |
| 2026-05-06 03:43 | 42.11035 | -108.17014 | 36997 ft | 475 kts | 128° |
| 2026-05-06 03:43 | 42.06957 | -108.10065 | 37003 ft | 475 kts | 128° |
| 2026-05-06 03:44 | 42.02859 | -108.03088 | 37000 ft | 475 kts | 128° |
| 2026-05-06 03:44 | 41.98762 | -107.96134 | 37002 ft | 474 kts | 128° |
| 2026-05-06 03:45 | 41.94691 | -107.89245 | 36994 ft | 473 kts | 129° |
| 2026-05-06 03:45 | 41.90598 | -107.82326 | 36983 ft | 474 kts | 129° |
| 2026-05-06 03:46 | 41.86518 | -107.75441 | 36992 ft | 474 kts | 129° |
| 2026-05-06 03:46 | 41.82414 | -107.68545 | 36986 ft | 474 kts | 130° |
| 2026-05-06 03:47 | 41.78113 | -107.61929 | 36981 ft | 473 kts | 133° |
| 2026-05-06 03:47 | 41.73735 | -107.55414 | 36957 ft | 472 kts | 133° |
| 2026-05-06 03:48 | 41.69341 | -107.48889 | 36972 ft | 473 kts | 133° |
| 2026-05-06 03:48 | 41.64934 | -107.42346 | 36990 ft | 473 kts | 133° |
| 2026-05-06 03:49 | 41.60548 | -107.35842 | 36961 ft | 472 kts | 134° |
| 2026-05-06 03:49 | 41.56177 | -107.29376 | 36968 ft | 472 kts | 134° |
| 2026-05-06 03:50 | 41.51764 | -107.22859 | 36952 ft | 472 kts | 134° |
| 2026-05-06 03:50 | 41.47379 | -107.16399 | 36963 ft | 472 kts | 134° |
| 2026-05-06 03:51 | 41.42976 | -107.09930 | 36966 ft | 472 kts | 134° |
| 2026-05-06 03:51 | 41.38568 | -107.03465 | 36952 ft | 472 kts | 135° |
| 2026-05-06 03:52 | 41.34156 | -106.97008 | 36951 ft | 472 kts | 135° |
| 2026-05-06 03:52 | 41.29757 | -106.90578 | 36965 ft | 472 kts | 135° |
| 2026-05-06 03:53 | 41.25350 | -106.84150 | 36971 ft | 473 kts | 135° |
| 2026-05-06 03:53 | 41.20945 | -106.77736 | 36969 ft | 473 kts | 135° |
| 2026-05-06 03:54 | 41.16517 | -106.71300 | 36960 ft | 472 kts | 135° |
| 2026-05-06 03:54 | 41.12091 | -106.64889 | 36901 ft | 473 kts | 135° |
| 2026-05-06 03:55 | 41.09890 | -106.61702 | 36701 ft | 472 kts | 135° |
| 2026-05-06 03:55 | 41.07669 | -106.58492 | 35940 ft | 479 kts | 135° |
| 2026-05-06 03:55 | 41.05402 | -106.55222 | 35222 ft | 487 kts | 135° |
| 2026-05-06 03:55 | 41.03127 | -106.51939 | 34733 ft | 487 kts | 135° |
| 2026-05-06 03:56 | 41.00851 | -106.48656 | 34147 ft | 483 kts | 135° |
| 2026-05-06 03:56 | 40.98600 | -106.45409 | 33293 ft | 484 kts | 135° |
| 2026-05-06 03:56 | 40.96333 | -106.42150 | 32302 ft | 484 kts | 135° |
| 2026-05-06 03:56 | 40.94059 | -106.38883 | 31224 ft | 483 kts | 135° |
| 2026-05-06 03:57 | 40.91827 | -106.35677 | 30652 ft | 472 kts | 135° |
| 2026-05-06 03:57 | 40.89600 | -106.32477 | 30189 ft | 466 kts | 136° |
| 2026-05-06 03:57 | 40.87417 | -106.29347 | 29704 ft | 461 kts | 136° |
| 2026-05-06 03:57 | 40.85366 | -106.26081 | 29220 ft | 459 kts | 129° |
| 2026-05-06 03:58 | 40.83630 | -106.22586 | 28750 ft | 457 kts | 122° |
| 2026-05-06 03:58 | 40.82186 | -106.18875 | 28282 ft | 454 kts | 117° |
| 2026-05-06 03:58 | 40.80871 | -106.15136 | 27834 ft | 450 kts | 117° |
| 2026-05-06 03:58 | 40.79573 | -106.11375 | 27379 ft | 446 kts | 117° |
| 2026-05-06 03:59 | 40.78292 | -106.07687 | 26928 ft | 442 kts | 117° |
| 2026-05-06 03:59 | 40.77011 | -106.04046 | 26459 ft | 438 kts | 117° |
| 2026-05-06 03:59 | 40.75726 | -106.00423 | 26001 ft | 434 kts | 117° |
| 2026-05-06 03:59 | 40.74461 | -105.96870 | 25566 ft | 430 kts | 117° |
| 2026-05-06 04:00 | 40.73202 | -105.93342 | 25134 ft | 426 kts | 118° |
| 2026-05-06 04:00 | 40.71950 | -105.89835 | 24732 ft | 420 kts | 117° |
| 2026-05-06 04:00 | 40.70716 | -105.86392 | 24748 ft | 417 kts | 118° |
| 2026-05-06 04:00 | 40.69475 | -105.82939 | 24765 ft | 418 kts | 118° |
| 2026-05-06 04:01 | 40.68234 | -105.79494 | 24803 ft | 418 kts | 118° |
| 2026-05-06 04:01 | 40.66994 | -105.76044 | 24810 ft | 419 kts | 118° |
| 2026-05-06 04:01 | 40.65738 | -105.72568 | 24826 ft | 419 kts | 118° |
| 2026-05-06 04:01 | 40.64497 | -105.69125 | 24842 ft | 418 kts | 118° |
| 2026-05-06 04:02 | 40.63247 | -105.65659 | 24724 ft | 420 kts | 118° |
| 2026-05-06 04:02 | 40.61992 | -105.62193 | 24227 ft | 419 kts | 118° |
| 2026-05-06 04:02 | 40.60755 | -105.58773 | 23753 ft | 416 kts | 118° |
| 2026-05-06 04:02 | 40.59506 | -105.55329 | 23309 ft | 413 kts | 118° |
| 2026-05-06 04:03 | 40.58293 | -105.51984 | 22901 ft | 410 kts | 118° |
| 2026-05-06 04:03 | 40.57066 | -105.48603 | 22489 ft | 407 kts | 118° |
| 2026-05-06 04:03 | 40.55856 | -105.45276 | 22070 ft | 403 kts | 118° |
| 2026-05-06 04:03 | 40.54660 | -105.41991 | 21676 ft | 401 kts | 118° |
| 2026-05-06 04:04 | 40.53460 | -105.38702 | 21284 ft | 398 kts | 117° |
| 2026-05-06 04:04 | 40.52258 | -105.35416 | 20858 ft | 396 kts | 118° |
| 2026-05-06 04:04 | 40.51081 | -105.32188 | 20464 ft | 393 kts | 118° |
| 2026-05-06 04:04 | 40.49908 | -105.28978 | 20060 ft | 391 kts | 118° |
| 2026-05-06 04:05 | 40.48745 | -105.25799 | 19655 ft | 389 kts | 118° |
| 2026-05-06 04:05 | 40.47575 | -105.22611 | 19254 ft | 387 kts | 119° |
| 2026-05-06 04:05 | 40.46353 | -105.19461 | 18994 ft | 378 kts | 126° |
| 2026-05-06 04:05 | 40.44736 | -105.16912 | 18888 ft | 359 kts | 143° |
| 2026-05-06 04:06 | 40.42773 | -105.14934 | 18912 ft | 351 kts | 150° |
| 2026-05-06 04:06 | 40.40792 | -105.13133 | 18941 ft | 350 kts | 151° |
| 2026-05-06 04:06 | 40.38787 | -105.11328 | 18964 ft | 350 kts | 151° |
| 2026-05-06 04:06 | 40.36785 | -105.09509 | 18987 ft | 350 kts | 150° |
| 2026-05-06 04:07 | 40.34771 | -105.07663 | 18995 ft | 351 kts | 150° |
| 2026-05-06 04:07 | 40.32789 | -105.05836 | 19002 ft | 352 kts | 149° |
| 2026-05-06 04:07 | 40.30786 | -105.03982 | 18629 ft | 354 kts | 150° |
| 2026-05-06 04:07 | 40.28763 | -105.02110 | 18198 ft | 353 kts | 150° |
| 2026-05-06 04:08 | 40.26771 | -105.00265 | 17804 ft | 352 kts | 149° |
| 2026-05-06 04:08 | 40.24797 | -104.98438 | 17413 ft | 351 kts | 149° |
| 2026-05-06 04:08 | 40.22810 | -104.96600 | 17022 ft | 346 kts | 149° |
| 2026-05-06 04:08 | 40.20872 | -104.94807 | 16858 ft | 337 kts | 149° |
| 2026-05-06 04:09 | 40.18942 | -104.93102 | 16877 ft | 335 kts | 153° |
| 2026-05-06 04:09 | 40.16909 | -104.91649 | 16598 ft | 333 kts | 159° |
| 2026-05-06 04:09 | 40.14791 | -104.90417 | 16194 ft | 330 kts | 161° |
| 2026-05-06 04:09 | 40.12681 | -104.89243 | 15802 ft | 329 kts | 162° |
| 2026-05-06 04:10 | 40.10606 | -104.88091 | 15426 ft | 328 kts | 161° |
| 2026-05-06 04:10 | 40.08507 | -104.86921 | 15041 ft | 327 kts | 161° |
| 2026-05-06 04:10 | 40.06409 | -104.85746 | 14651 ft | 326 kts | 161° |
| 2026-05-06 04:10 | 40.04347 | -104.84589 | 14275 ft | 325 kts | 160° |
| 2026-05-06 04:11 | 40.02284 | -104.83415 | 13898 ft | 324 kts | 159° |
| 2026-05-06 04:11 | 40.00235 | -104.82242 | 13541 ft | 322 kts | 159° |
| 2026-05-06 04:11 | 39.98166 | -104.81095 | 13247 ft | 316 kts | 163° |
| 2026-05-06 04:11 | 39.96046 | -104.80482 | 12866 ft | 311 kts | 178° |
| 2026-05-06 04:12 | 39.93920 | -104.80432 | 12653 ft | 301 kts | 183° |
| 2026-05-06 04:12 | 39.91867 | -104.80499 | 12287 ft | 297 kts | 184° |
| 2026-05-06 04:12 | 39.89787 | -104.80580 | 11915 ft | 296 kts | 183° |
| 2026-05-06 04:12 | 39.87738 | -104.80651 | 11551 ft | 295 kts | 182° |
| 2026-05-06 04:13 | 39.85716 | -104.80713 | 11248 ft | 285 kts | 182° |
| 2026-05-06 04:13 | 39.83814 | -104.80765 | 11165 ft | 267 kts | 183° |
| 2026-05-06 04:13 | 39.82001 | -104.80810 | 11075 ft | 249 kts | 181° |
| 2026-05-06 04:13 | 39.80331 | -104.80850 | 10994 ft | 237 kts | 182° |
| 2026-05-06 04:14 | 39.78705 | -104.80891 | 10942 ft | 235 kts | 182° |
| 2026-05-06 04:14 | 39.77037 | -104.80917 | 10940 ft | 238 kts | 181° |
| 2026-05-06 04:14 | 39.75370 | -104.80934 | 10937 ft | 239 kts | 181° |
| 2026-05-06 04:14 | 39.73732 | -104.80949 | 10787 ft | 236 kts | 181° |
| 2026-05-06 04:15 | 39.72085 | -104.80966 | 10448 ft | 236 kts | 180° |
| 2026-05-06 04:15 | 39.70435 | -104.80987 | 10116 ft | 236 kts | 180° |
| 2026-05-06 04:15 | 39.68816 | -104.81007 | 9822 ft | 234 kts | 180° |
| 2026-05-06 04:15 | 39.67179 | -104.81023 | 9465 ft | 233 kts | 180° |
| 2026-05-06 04:16 | 39.65561 | -104.81038 | 9073 ft | 235 kts | 180° |
| 2026-05-06 04:16 | 39.63920 | -104.81054 | 8935 ft | 234 kts | 180° |
| 2026-05-06 04:16 | 39.62255 | -104.80878 | 8931 ft | 246 kts | 162° |
| 2026-05-06 04:16 | 39.60878 | -104.79787 | 8916 ft | 228 kts | 129° |
| 2026-05-06 04:17 | 39.60206 | -104.77971 | 8917 ft | 225 kts | 98° |
| 2026-05-06 04:17 | 39.60125 | -104.75957 | 8934 ft | 225 kts | 89° |
| 2026-05-06 04:17 | 39.60175 | -104.73927 | 8928 ft | 226 kts | 88° |
| 2026-05-06 04:17 | 39.60301 | -104.71914 | 8927 ft | 225 kts | 76° |
| 2026-05-06 04:18 | 39.61041 | -104.70152 | 8924 ft | 227 kts | 43° |
| 2026-05-06 04:18 | 39.62418 | -104.69171 | 8933 ft | 228 kts | 13° |
| 2026-05-06 04:18 | 39.63990 | -104.68902 | 8948 ft | 230 kts | 2° |
| 2026-05-06 04:18 | 39.65602 | -104.68881 | 8930 ft | 226 kts | 359° |
| 2026-05-06 04:19 | 39.67117 | -104.68903 | 8952 ft | 212 kts | 360° |
| 2026-05-06 04:19 | 39.68583 | -104.68908 | 8803 ft | 207 kts | 359° |
| 2026-05-06 04:19 | 39.70005 | -104.68900 | 8612 ft | 203 kts | 1° |
| 2026-05-06 04:19 | 39.71404 | -104.68891 | 8337 ft | 200 kts | 1° |
| 2026-05-06 04:20 | 39.72801 | -104.68878 | 8035 ft | 197 kts | 0° |
| 2026-05-06 04:20 | 39.74106 | -104.68861 | 7761 ft | 179 kts | 0° |
| 2026-05-06 04:20 | 39.75291 | -104.68848 | 7494 ft | 163 kts | 359° |
| 2026-05-06 04:20 | 39.76384 | -104.68837 | 7275 ft | 149 kts | 2° |
| 2026-05-06 04:21 | 39.77369 | -104.68816 | 7058 ft | 136 kts | 359° |
| 2026-05-06 04:21 | 39.78305 | -104.68807 | 6889 ft | 134 kts | 359° |
| 2026-05-06 04:21 | 39.79242 | -104.68799 | 6728 ft | 134 kts | 359° |
| 2026-05-06 04:21 | 39.80175 | -104.68790 | 6558 ft | 133 kts | 359° |
| 2026-05-06 04:22 | 39.81094 | -104.68778 | 6393 ft | 132 kts | 359° |
| 2026-05-06 04:22 | 39.82017 | -104.68767 | 6207 ft | 132 kts | 359° |
| 2026-05-06 04:22 | 39.82934 | -104.68758 | 6028 ft | 131 kts | 359° |
| 2026-05-06 04:23 | 39.84763 | -104.68737 | 5667 ft | 130 kts | 359° |
| 2026-05-06 04:23 | 39.85674 | -104.68726 | 5470 ft | 129 kts | 358° |
| 2026-05-06 04:23 | 39.86568 | -104.68716 | 5333 ft | 129 kts | 359° |
| 2026-05-06 04:23 | 39.87368 | -104.68711 | 5342 ft | 91 kts | 360° |
| 2026-05-06 04:24 | 39.87851 | -104.68706 | 5325 ft | 55 kts | 359° |
| 2026-05-06 04:24 | 39.88186 | -104.68688 | 5340 ft | 41 kts | 4° |
| 2026-05-06 04:24 | 39.88429 | -104.68671 | 5358 ft | 33 kts | 14° |
| 2026-05-06 04:24 | 39.88622 | -104.68539 | 5373 ft | 22 kts | 60° |
| 2026-05-06 04:25 | 39.88534 | -104.68478 | 5372 ft | 23 kts | 181° |
| 2026-05-06 04:25 | 39.88361 | -104.68485 | 5362 ft | 19 kts | 180° |
| 2026-05-06 04:25 | 39.88218 | -104.68488 | 5353 ft | 21 kts | 181° |
| 2026-05-06 04:25 | 39.88063 | -104.68487 | 5344 ft | 22 kts | 178° |
| 2026-05-06 04:26 | 39.87905 | -104.68489 | 5338 ft | 22 kts | 180° |
| 2026-05-06 04:26 | 39.87756 | -104.68492 | 5338 ft | 19 kts | 180° |
| 2026-05-06 04:26 | 39.87633 | -104.68493 | 5341 ft | 15 kts | 180° |
| 2026-05-06 04:26 | 39.87520 | -104.68494 | 5346 ft | 17 kts | 180° |
| 2026-05-06 04:27 | 39.87406 | -104.68494 | 5350 ft | 15 kts | 180° |
| 2026-05-06 04:27 | 39.87306 | -104.68496 | 5353 ft | 15 kts | 180° |
| 2026-05-06 04:27 | 39.87189 | -104.68497 | 5356 ft | 15 kts | 180° |
| 2026-05-06 04:27 | 39.87061 | -104.68499 | 5352 ft | 24 kts | 179° |
| 2026-05-06 04:28 | 39.86877 | -104.68501 | 5344 ft | 26 kts | 180° |
| 2026-05-06 04:28 | 39.86686 | -104.68505 | 5331 ft | 28 kts | 179° |
| 2026-05-06 04:28 | 39.86490 | -104.68507 | 5322 ft | 27 kts | 181° |
| 2026-05-06 04:28 | 39.86308 | -104.68508 | 5319 ft | 25 kts | 181° |
| 2026-05-06 04:29 | 39.86153 | -104.68510 | 5319 ft | 18 kts | 180° |
| 2026-05-06 04:29 | 39.86055 | -104.68500 | 5324 ft | 10 kts | 149° |
| 2026-05-06 04:29 | 39.86030 | -104.68415 | 5330 ft | 10 kts | 91° |
| 2026-05-06 04:29 | 39.86031 | -104.68328 | 5335 ft | 11 kts | 89° |
| 2026-05-06 04:30 | 39.86022 | -104.68208 | 5342 ft | 14 kts | 104° |
| 2026-05-06 04:30 | 39.86015 | -104.68111 | 5349 ft | 7 kts | 90° |
| 2026-05-06 04:30 | 39.86007 | -104.68069 | 5351 ft | 3 kts | 129° |
| 2026-05-06 04:30 | 39.85981 | -104.68054 | 5353 ft | 4 kts | 172° |
| 2026-05-06 04:31 | 39.85946 | -104.68053 | 5354 ft | 4 kts | 179° |
| 2026-05-06 04:31 | 39.85931 | -104.68053 | 5354 ft | 0 kts | 179° |